Latest Weather Observations for Walpole North

IDW60801

Issued at 11:03 pm WST Tuesday 22 September 2020 (issued every 10 minutes, with the page automatically refreshed every 10 minutes)

About weather observations | Map of weather stations | Latest weather observations for WA | Other Formats
Station Details ID: 009998 Name: NORTH WALPOLE Lat: -34.95 Lon: 116.72 Height: 73.0 m
Data from the previous 72 hours. | See also: Recent months at Walpole North
Date/Time
WST
Temp
°C
App
Temp
°C
Dew
Point
°C
Rel
Hum
%
Delta-T
°C
Wind Press
QNH
hPa
Press
MSL
hPa
Rain since
9am
mm
Dir  Spd
km/h
Gust
km/h
Spd
kts
Gust
kts
22/11:00pm 9.3 9.1 9.2 99 0.0 CALM 0 0 0 0 1025.9 1025.9 0.0
22/10:30pm 9.1 8.9 9.0 99 0.0 CALM 0 0 0 0 1025.8 1025.8 0.0
22/10:00pm 9.4 7.9 9.3 99 0.0 SW 7 7 4 4 1025.5 1025.5 0.0
22/09:30pm 9.9 9.8 9.6 98 0.2 CALM 0 6 0 3 1025.7 1025.7 0.0
22/09:00pm 10.1 9.9 9.2 94 0.4 CALM 0 0 0 0 1025.5 1025.5 0.0
22/08:30pm 10.0 9.6 8.4 90 0.8 CALM 0 0 0 0 1025.2 1025.2 0.0
22/08:00pm 10.5 8.8 8.3 86 1.1 SW 7 7 4 4 1024.7 1024.7 0.0
22/07:30pm 10.8 10.3 7.9 82 1.4 CALM 0 0 0 0 1024.4 1024.4 0.0
22/07:00pm 11.4 10.8 7.3 76 2.0 CALM 0 0 0 0 1024.3 1024.3 0.0
22/06:30pm 12.1 10.7 7.4 73 2.3 SW 4 9 2 5 1024.2 1024.2 0.0
22/06:00pm 13.0 11.1 7.5 69 2.7 SW 7 11 4 6 1024.1 1024.1 0.0
22/05:30pm 14.2 12.0 7.7 65 3.2 WSW 9 13 5 7 1023.8 1023.8 0.0
22/05:00pm 15.2 12.6 7.7 61 3.7 SW 11 19 6 10 1023.2 1023.2 0.0
22/04:30pm 16.3 14.1 8.0 58 4.2 SW 9 15 5 8 1022.9 1022.9 0.0
22/04:00pm 17.0 15.0 8.7 58 4.3 WSW 9 15 5 8 1022.6 1022.6 0.0
22/03:30pm 16.8 14.2 9.5 62 3.8 SW 13 20 7 11 1022.5 1022.5 0.0
22/03:00pm 17.1 15.1 10.2 64 3.7 SSW 11 19 6 10 1022.6 1022.6 0.0
22/02:30pm 16.1 13.5 9.5 65 3.4 SW 13 22 7 12 1022.5 1022.5 0.0
22/02:00pm 16.6 14.2 8.8 60 4.0 WSW 11 20 6 11 1022.5 1022.5 0.0
22/01:30pm 17.0 14.5 8.4 57 4.4 SW 11 20 6 11 1022.4 1022.4 0.0
22/01:00pm 17.4 14.9 9.8 61 4.0 SW 13 20 7 11 1022.5 1022.5 0.0
22/12:30pm 16.4 13.5 8.1 58 4.2 SW 13 19 7 10 1022.7 1022.7 0.0
22/12:00pm 15.6 12.6 7.6 59 4.0 WSW 13 26 7 14 1022.8 1022.8 0.0
22/11:30am 16.1 13.4 7.3 56 4.4 W 11 17 6 9 1022.8 1022.8 0.0
22/11:00am 16.4 13.8 9.3 63 3.7 WSW 13 19 7 10 1023.0 1023.0 0.0
22/10:30am 15.3 12.7 9.4 68 3.1 W 13 22 7 12 1023.0 1023.0 0.0
22/10:00am 14.3 11.4 8.3 67 3.0 W 13 20 7 11 1022.9 1022.9 0.0
22/09:30am 15.1 12.4 10.3 73 2.5 WNW 15 19 8 10 1023.0 1023.0 0.0
22/09:00am 13.5 11.5 10.1 80 1.8 WNW 11 17 6 9 1022.7 1022.7 1.8
22/08:30am 12.2 9.8 9.9 86 1.2 WNW 13 17 7 9 1022.4 1022.4 1.8
22/08:00am 11.5 9.6 10.4 93 0.6 WNW 11 15 6 8 1022.2 1022.2 1.8
22/07:30am 10.4 8.4 10.2 99 0.1 WNW 11 15 6 8 1021.8 1021.8 1.8
22/07:00am 9.2 7.3 9.1 99 0.0 WNW 9 13 5 7 1021.2 1021.2 1.8
22/06:30am 7.2 5.2 7.1 99 0.0 NW 7 9 4 5 1021.0 1021.0 1.8
22/06:00am 7.7 5.8 7.6 99 0.0 NW 7 9 4 5 1020.7 1020.7 1.8
22/05:30am 8.7 6.6 8.3 97 0.2 WNW 9 13 5 7 1020.4 1020.4 1.8
22/05:00am 8.3 6.4 7.4 94 0.4 WNW 7 11 4 6 1020.1 1020.0 1.8
22/04:30am 9.0 6.8 7.8 92 0.6 WNW 9 13 5 7 1020.0 1019.9 1.8
22/04:00am 9.2 6.6 7.6 90 0.8 WNW 11 15 6 8 1019.7 1019.7 1.8
22/03:30am 9.5 7.3 7.8 89 0.8 WNW 9 11 5 6 1019.7 1019.7 1.8
22/03:00am 9.7 7.6 8.3 91 0.7 WNW 9 13 5 7 1019.7 1019.7 1.8
22/02:30am 9.6 7.5 8.4 92 0.6 WNW 9 13 5 7 1019.6 1019.6 1.8
22/02:00am 9.5 7.4 8.4 93 0.5 WNW 9 13 5 7 1019.5 1019.5 1.8
22/01:30am 9.5 7.4 8.3 92 0.6 WNW 9 11 5 6 1019.5 1019.5 1.8
22/01:00am 10.0 8.0 8.6 91 0.7 W 9 13 5 7 1019.4 1019.4 1.8
22/12:30am 10.5 8.2 9.1 91 0.7 WNW 11 15 6 8 1019.4 1019.4 1.8
22/12:00am 10.7 8.5 9.3 91 0.7 WNW 11 15 6 8 1019.2 1019.2 1.8
 
Date/Time
WST
Temp
°C
App
Temp
°C
Dew
Point
°C
Rel
Hum
%
Delta-T
°C
Wind Press
QNH
hPa
Press
MSL
hPa
Rain since
9am
mm
Dir  Spd
km/h
Gust
km/h
Spd
kts
Gust
kts
21/11:30pm 10.8 8.7 9.9 94 0.5 WNW 11 15 6 8 1019.1 1019.1 1.8
21/11:00pm 10.7 9.2 10.5 99 0.1 WNW 9 13 5 7 1019.2 1019.2 1.8
21/10:30pm 10.7 9.2 10.5 99 0.1 WNW 9 13 5 7 1019.2 1019.2 1.8
21/10:00pm 11.1 9.8 11.1 100 0.0 W 9 19 5 10 1019.0 1019.0 1.8
21/09:30pm 11.9 10.4 11.9 100 0.0 WSW 11 20 6 11 1018.8 1018.8 1.8
21/09:00pm 12.2 11.2 12.2 100 0.0 W 9 15 5 8 1018.8 1018.8 1.8
21/08:30pm 12.3 10.6 12.3 100 0.0 WNW 13 19 7 10 1018.8 1018.8 1.6
21/08:00pm 12.3 9.8 12.3 100 0.0 WNW 17 26 9 14 1018.7 1018.7 1.6
21/07:30pm 12.3 8.5 12.3 100 0.0 NW 24 32 13 17 1018.3 1018.3 1.4
21/07:00pm 12.2 8.7 12.2 100 0.0 NW 22 35 12 19 1018.2 1018.2 1.4
21/06:30pm 12.1 8.6 12.1 100 0.0 NW 22 33 12 18 1018.1 1018.1 1.2
21/06:00pm 12.0 8.8 12.0 100 0.0 NW 20 30 11 16 1018.3 1018.3 1.0
21/05:30pm 12.0 9.0 11.8 99 0.1 NW 19 22 10 12 1018.4 1018.4 1.0
21/05:00pm 12.3 9.3 12.1 99 0.1 NW 19 30 10 16 1018.2 1018.2 0.4
21/04:30pm 12.3 9.0 11.5 95 0.4 NW 20 28 11 15 1018.2 1018.2 0.2
21/04:00pm 14.1 11.2 9.7 75 2.3 WNW 15 24 8 13 1018.0 1018.0 0.0
21/03:30pm 13.2 10.3 9.8 80 1.7 W 15 24 8 13 1018.2 1018.2 0.0
21/03:00pm 13.1 9.7 9.2 77 2.0 W 17 28 9 15 1018.4 1018.4 0.0
21/02:30pm 13.3 9.1 8.4 72 2.5 W 20 35 11 19 1018.5 1018.5 0.0
21/02:00pm 13.7 9.1 8.1 69 2.8 W 22 35 12 19 1018.3 1018.3 0.0
21/01:30pm 12.9 8.8 8.6 75 2.2 WNW 20 37 11 20 1018.7 1018.7 0.0
21/01:00pm 12.8 10.1 8.9 77 2.0 W 13 24 7 13 1018.7 1018.7 0.0
21/12:30pm 13.2 8.8 7.2 67 2.9 W 20 39 11 21 1018.9 1018.9 0.0
21/12:00pm 12.6 8.8 7.7 72 2.4 W 17 32 9 17 1019.1 1019.1 0.0
21/11:30am 13.3 8.8 6.9 65 3.1 W 20 33 11 18 1019.1 1019.1 0.0
21/11:00am 12.8 8.3 6.8 67 2.9 W 20 35 11 19 1019.2 1019.2 0.0
21/10:30am 12.5 8.2 7.0 69 2.7 WSW 19 28 10 15 1019.4 1019.4 0.0
21/10:00am 12.5 9.0 7.0 69 2.6 W 15 22 8 12 1019.4 1019.4 0.0
21/09:30am 12.3 9.3 7.8 74 2.2 W 13 22 7 12 1019.3 1019.3 0.0
21/09:00am 12.1 8.6 7.2 72 2.4 WSW 15 32 8 17 1019.3 1019.3 28.8
21/08:30am 11.7 8.9 6.8 72 2.3 WNW 11 17 6 9 1018.9 1018.9 28.8
21/08:00am 11.3 7.7 6.8 74 2.1 W 15 22 8 12 1018.7 1018.7 28.8
21/07:30am 10.3 8.5 8.1 86 1.1 WSW 7 11 4 6 1018.6 1018.6 28.8
21/07:00am 10.1 7.6 8.0 87 1.0 WNW 11 19 6 10 1018.2 1018.2 28.8
21/06:30am 9.8 7.0 7.1 83 1.3 WNW 11 19 6 10 1018.0 1018.0 28.8
21/06:00am 10.7 6.5 5.5 70 2.4 WSW 17 33 9 18 1017.8 1017.8 28.8
21/05:30am 10.6 6.0 5.6 71 2.3 SW 19 33 10 18 1017.5 1017.5 28.8
21/05:00am 10.2 6.5 6.4 77 1.8 SW 15 26 8 14 1017.4 1017.4 28.8
21/04:30am 9.7 6.4 8.1 90 0.8 W 15 26 8 14 1017.1 1017.1 28.8
21/04:00am 9.8 6.2 8.4 91 0.7 W 17 30 9 16 1016.9 1016.9 28.8
21/03:30am 10.0 6.2 9.1 94 0.4 WSW 19 28 10 15 1016.8 1016.8 28.8
21/03:00am 9.8 6.9 9.7 99 0.1 W 15 24 8 13 1016.7 1016.7 28.8
21/02:30am 10.0 7.2 9.9 99 0.1 W 15 24 8 13 1016.7 1016.7 28.4
21/02:00am 10.4 6.7 9.3 93 0.5 WSW 19 33 10 18 1016.6 1016.6 28.0
21/01:30am 10.3 7.1 10.1 99 0.1 W 17 26 9 14 1016.5 1016.5 27.8
21/01:00am 10.2 7.0 10.1 99 0.1 WSW 17 26 9 14 1016.4 1016.4 27.8
21/12:30am 10.3 6.8 10.1 99 0.1 WSW 19 32 10 17 1016.2 1016.2 27.8
21/12:00am 10.3 6.6 10.1 99 0.1 WSW 20 33 11 18 1016.3 1016.3 27.4
 
Date/Time
WST
Temp
°C
App
Temp
°C
Dew
Point
°C
Rel
Hum
%
Delta-T
°C
Wind Press
QNH
hPa
Press
MSL
hPa
Rain since
9am
mm
Dir  Spd
km/h
Gust
km/h
Spd
kts
Gust
kts
20/11:30pm 10.1 6.4 10.0 99 0.1 WSW 20 33 11 18 1016.1 1016.1 26.8
20/11:00pm 10.6 7.5 10.4 99 0.1 SW 17 22 9 12 1016.2 1016.2 26.4
20/10:30pm 10.7 6.7 10.5 99 0.1 WSW 22 37 12 20 1016.1 1016.1 24.8
20/10:00pm 10.9 7.5 10.7 99 0.1 WSW 19 37 10 20 1016.0 1016.0 24.2
20/09:30pm 10.8 8.2 10.6 99 0.1 SW 15 32 8 17 1015.9 1015.9 23.8
20/09:00pm 10.8 7.3 10.8 100 0.0 WSW 20 37 11 20 1015.9 1015.9 23.2
20/08:30pm 10.8 6.8 10.6 99 0.1 WSW 22 35 12 19 1015.6 1015.6 21.8
20/08:00pm 10.8 6.5 10.6 99 0.1 WSW 24 39 13 21 1015.4 1015.4 19.8
20/07:30pm 11.1 8.2 10.9 99 0.1 SW 17 28 9 15 1014.9 1014.9 18.6
20/07:00pm 11.1 7.6 10.9 99 0.1 WSW 20 43 11 23 1014.2 1014.2 17.8
20/06:30pm 10.7 7.1 10.5 99 0.1 SW 20 32 11 17 1014.2 1014.2 16.6
20/06:00pm 11.2 7.7 11.0 99 0.1 WSW 20 33 11 18 1013.7 1013.7 16.4
20/05:30pm 11.5 8.3 11.3 99 0.1 WSW 19 35 10 19 1013.3 1013.3 14.0
20/05:00pm 11.2 7.0 11.0 99 0.1 WSW 24 41 13 22 1012.5 1012.5 11.8
20/04:30pm 11.7 8.6 11.5 99 0.1 WSW 19 32 10 17 1012.1 1012.1 9.4
20/04:00pm 10.9 6.2 10.7 99 0.1 SW 26 52 14 28 1011.8 1011.8 8.8
20/03:32pm 11.4 6.5 11.2 99 0.1 WSW 28 52 15 28 1011.2 1011.2 8.0
20/03:30pm 11.5 7.0 11.3 99 0.1 WSW 26 41 14 22 1011.2 1011.2 8.0
20/03:00pm 11.9 6.7 11.7 99 0.1 W 30 50 16 27 1010.6 1010.6 4.6
20/02:40pm 12.0 7.2 11.8 99 0.1 W 28 46 15 25 1010.2 1010.2 4.2
20/02:30pm 11.9 6.7 11.7 99 0.1 WSW 30 44 16 24 1010.2 1010.2 4.2
20/02:00pm 11.3 6.0 11.1 99 0.1 W 30 48 16 26 1009.9 1009.9 4.2
20/01:50pm 10.8 5.7 10.6 99 0.1 W 28 54 15 29 1009.8 1009.8 4.0
20/01:30pm 10.6 4.7 10.4 99 0.1 W 32 46 17 25 1009.8 1009.8 3.8
20/01:00pm 10.6 3.8 9.4 92 0.6 W 35 63 19 34 1009.6 1009.6 2.8
20/12:30pm 11.4 4.9 8.1 80 1.6 W 32 52 17 28 1009.1 1009.1 2.2
20/12:00pm 11.2 5.2 8.6 84 1.3 W 30 48 16 26 1008.7 1008.7 2.2
20/11:30am 9.8 3.8 8.6 92 0.6 W 30 56 16 30 1008.5 1008.4 1.8
20/11:00am 10.2 4.0 7.8 85 1.2 WSW 30 48 16 26 1008.3 1008.2 1.2
20/10:30am 10.0 3.4 7.8 86 1.1 W 32 63 17 34 1008.2 1008.1 1.0
20/10:00am 10.0 3.2 6.7 80 1.6 W 32 50 17 27 1007.9 1007.8 0.4
20/09:30am 11.4 3.9 6.5 72 2.3 WSW 35 61 19 33 1007.3 1007.2 0.2
20/09:00am 11.0 4.2 6.9 76 2.0 W 32 54 17 29 1007.2 1007.1 16.4
20/08:33am 10.2 4.4 7.8 85 1.2 W 28 50 15 27 1006.9 1006.8 16.4
20/08:30am 9.7 4.1 7.3 85 1.1 W 26 43 14 23 1006.7 1006.6 16.4
20/08:00am 10.3 3.2 6.3 76 1.9 W 33 52 18 28 1006.4 1006.3 15.8
20/07:30am 9.5 3.4 6.8 83 1.3 W 28 50 15 27 1006.1 1006.0 15.6
20/07:05am 9.6 3.0 6.1 79 1.6 W 30 54 16 29 1005.3 1005.3 15.0
20/07:00am 9.4 2.5 6.3 81 1.4 W 32 48 17 26 1005.5 1005.5 15.0
20/06:33am 9.2 3.1 6.5 83 1.3 W 28 46 15 25 1005.2 1005.2 15.0
20/06:30am 8.9 2.7 6.3 84 1.2 W 28 43 15 23 1005.2 1005.2 15.0
20/06:00am 9.4 3.2 6.3 81 1.4 W 28 48 15 26 1004.9 1004.9 14.6
20/05:30am 8.5 2.4 6.5 87 0.9 WSW 28 52 15 28 1004.7 1004.7 14.6
20/05:00am 9.4 2.3 5.4 76 1.8 W 32 59 17 32 1004.4 1004.4 13.6
20/04:31am 8.6 2.4 6.1 84 1.1 W 28 52 15 28 1004.5 1004.5 13.6
20/04:30am 8.6 2.8 6.1 84 1.1 W 26 52 14 28 1004.4 1004.4 13.6
20/04:00am 8.9 3.0 5.8 81 1.4 W 26 43 14 23 1004.2 1004.2 13.4
20/03:30am 8.2 1.2 5.8 85 1.1 W 32 61 17 33 1004.2 1004.2 13.2
20/03:23am 8.3 2.0 5.6 83 1.2 W 28 61 15 33 1003.8 1003.8 13.2
20/03:00am 7.7 1.6 5.0 83 1.2 W 26 44 14 24 1004.0 1004.0 13.0
20/02:30am 6.8 -0.5 4.6 86 1.0 W 32 59 17 32 1004.2 1004.2 13.0
20/02:09am 7.5 1.2 5.5 87 0.9 W 28 52 15 28 1004.6 1004.6 12.8
20/02:00am 7.3 2.8 6.1 92 0.5 W 19 33 10 18 1004.6 1004.6 12.8
20/01:30am 7.1 2.0 4.1 81 1.3 W 20 37 11 20 1004.7 1004.7 11.0
20/01:00am 7.8 3.0 4.4 79 1.5 W 19 30 10 16 1005.0 1005.0 10.0
20/12:30am 8.3 3.2 4.1 75 1.8 W 20 35 11 19 1005.0 1005.0 10.0
20/12:04am 8.2 1.4 3.1 70 2.2 W 28 48 15 26 1005.1 1005.1 10.0
20/12:00am 8.1 2.1 3.2 71 2.1 W 24 43 13 23 1005.1 1005.1 10.0
 
Date/Time
WST
Temp
°C
App
Temp
°C
Dew
Point
°C
Rel
Hum
%
Delta-T
°C
Wind Press
QNH
hPa
Press
MSL
hPa
Rain since
9am
mm
Dir  Spd
km/h
Gust
km/h
Spd
kts
Gust
kts
19/11:30pm 7.7 2.6 4.3 79 1.5 W 20 35 11 19 1005.2 1005.2 10.0

Other formats

Comma delimited format used in spreadsheet applications
http://www.bom.gov.au/fwo/IDW60801/IDW60801.95647.axf

JavaScript Object Notation format (JSON) in row-major order
http://www.bom.gov.au/fwo/IDW60801/IDW60801.95647.json

Data quality

Most of these data are generated automatically and are frequently updated. Quality checks on data are not normally performed. It is possible for incorrect values to appear. Refer to information at About Latest Weather Observations and please check the disclaimer before using these data.